sensor_id;sensor_type;location;lat;lon;timestamp;P1;durP1;ratioP1;P2;durP2;ratioP2
16967;SDS011;64862;54.398;10.126;2023-11-21T00:04:35;10.05;;;5.93;;
16967;SDS011;64862;54.398;10.126;2023-11-21T00:14:37;8.73;;;5.72;;
16967;SDS011;64862;54.398;10.126;2023-11-21T00:24:41;10.52;;;6.78;;
16967;SDS011;64862;54.398;10.126;2023-11-21T00:34:43;12.02;;;7.50;;
16967;SDS011;64862;54.398;10.126;2023-11-21T00:44:47;15.82;;;7.68;;
16967;SDS011;64862;54.398;10.126;2023-11-21T00:54:49;11.63;;;7.80;;
16967;SDS011;64862;54.398;10.126;2023-11-21T01:04:53;14.30;;;7.65;;
16967;SDS011;64862;54.398;10.126;2023-11-21T01:14:56;12.85;;;7.30;;
16967;SDS011;64862;54.398;10.126;2023-11-21T01:25:01;13.60;;;7.25;;
16967;SDS011;64862;54.398;10.126;2023-11-21T01:35:05;11.30;;;6.78;;
16967;SDS011;64862;54.398;10.126;2023-11-21T01:45:09;10.23;;;7.05;;
16967;SDS011;64862;54.398;10.126;2023-11-21T01:55:14;13.30;;;6.97;;
16967;SDS011;64862;54.398;10.126;2023-11-21T02:05:20;13.50;;;6.90;;
16967;SDS011;64862;54.398;10.126;2023-11-21T02:15:23;9.75;;;6.15;;
16967;SDS011;64862;54.398;10.126;2023-11-21T02:25:30;11.05;;;6.22;;
16967;SDS011;64862;54.398;10.126;2023-11-21T02:35:33;8.82;;;5.78;;
16967;SDS011;64862;54.398;10.126;2023-11-21T02:45:37;10.32;;;5.53;;
16967;SDS011;64862;54.398;10.126;2023-11-21T02:55:39;9.30;;;3.70;;
16967;SDS011;64862;54.398;10.126;2023-11-21T03:05:42;9.00;;;3.00;;
16967;SDS011;64862;54.398;10.126;2023-11-21T03:15:45;3.35;;;2.17;;
16967;SDS011;64862;54.398;10.126;2023-11-21T03:25:50;7.13;;;3.17;;
16967;SDS011;64862;54.398;10.126;2023-11-21T03:35:52;6.25;;;2.90;;
16967;SDS011;64862;54.398;10.126;2023-11-21T03:45:55;5.43;;;2.33;;
16967;SDS011;64862;54.398;10.126;2023-11-21T03:55:58;6.10;;;2.72;;
16967;SDS011;64862;54.398;10.126;2023-11-21T04:06:01;5.70;;;2.40;;
16967;SDS011;64862;54.398;10.126;2023-11-21T04:16:05;5.72;;;2.70;;
16967;SDS011;64862;54.398;10.126;2023-11-21T04:26:09;7.18;;;2.30;;
16967;SDS011;64862;54.398;10.126;2023-11-21T04:36:11;6.05;;;2.22;;
16967;SDS011;64862;54.398;10.126;2023-11-21T04:46:14;9.25;;;2.65;;
16967;SDS011;64862;54.398;10.126;2023-11-21T04:56:16;6.72;;;2.47;;
16967;SDS011;64862;54.398;10.126;2023-11-21T05:06:19;6.90;;;2.15;;
16967;SDS011;64862;54.398;10.126;2023-11-21T05:16:21;5.65;;;2.08;;
16967;SDS011;64862;54.398;10.126;2023-11-21T05:26:24;5.93;;;2.20;;
16967;SDS011;64862;54.398;10.126;2023-11-21T05:36:26;5.55;;;2.33;;
16967;SDS011;64862;54.398;10.126;2023-11-21T05:46:30;5.82;;;2.63;;
16967;SDS011;64862;54.398;10.126;2023-11-21T05:56:31;7.45;;;3.33;;
16967;SDS011;64862;54.398;10.126;2023-11-21T06:06:35;8.15;;;3.38;;
16967;SDS011;64862;54.398;10.126;2023-11-21T06:16:36;9.90;;;3.65;;
16967;SDS011;64862;54.398;10.126;2023-11-21T06:26:41;8.68;;;3.70;;
16967;SDS011;64862;54.398;10.126;2023-11-21T06:36:44;6.65;;;3.25;;
16967;SDS011;64862;54.398;10.126;2023-11-21T06:46:48;8.55;;;4.07;;
16967;SDS011;64862;54.398;10.126;2023-11-21T06:56:50;8.32;;;4.03;;
16967;SDS011;64862;54.398;10.126;2023-11-21T07:06:54;7.47;;;4.30;;
16967;SDS011;64862;54.398;10.126;2023-11-21T07:16:56;9.45;;;4.53;;
16967;SDS011;64862;54.398;10.126;2023-11-21T07:26:59;10.13;;;4.32;;
16967;SDS011;64862;54.398;10.126;2023-11-21T07:37:01;9.32;;;4.38;;
16967;SDS011;64862;54.398;10.126;2023-11-21T07:47:05;6.18;;;3.60;;
16967;SDS011;64862;54.398;10.126;2023-11-21T07:57:07;8.57;;;4.45;;
16967;SDS011;64862;54.398;10.126;2023-11-21T08:07:10;5.95;;;3.67;;
16967;SDS011;64862;54.398;10.126;2023-11-21T08:17:12;5.38;;;3.45;;
16967;SDS011;64862;54.398;10.126;2023-11-21T08:27:15;6.78;;;3.33;;
16967;SDS011;64862;54.398;10.126;2023-11-21T08:37:17;7.05;;;3.10;;
16967;SDS011;64862;54.398;10.126;2023-11-21T08:47:20;8.05;;;3.55;;
16967;SDS011;64862;54.398;10.126;2023-11-21T08:57:25;8.15;;;3.35;;
16967;SDS011;64862;54.398;10.126;2023-11-21T09:07:28;6.47;;;3.20;;
16967;SDS011;64862;54.398;10.126;2023-11-21T09:17:30;6.65;;;3.08;;
16967;SDS011;64862;54.398;10.126;2023-11-21T09:27:34;4.45;;;2.60;;
16967;SDS011;64862;54.398;10.126;2023-11-21T09:37:36;6.32;;;2.63;;
16967;SDS011;64862;54.398;10.126;2023-11-21T09:47:40;6.18;;;2.95;;
16967;SDS011;64862;54.398;10.126;2023-11-21T09:57:42;5.18;;;2.80;;
16967;SDS011;64862;54.398;10.126;2023-11-21T10:07:45;7.57;;;2.78;;
16967;SDS011;64862;54.398;10.126;2023-11-21T10:17:48;5.80;;;2.90;;
16967;SDS011;64862;54.398;10.126;2023-11-21T10:27:57;7.78;;;3.47;;
16967;SDS011;64862;54.398;10.126;2023-11-21T10:38:01;9.20;;;3.60;;
16967;SDS011;64862;54.398;10.126;2023-11-21T10:48:08;6.72;;;2.65;;
16967;SDS011;64862;54.398;10.126;2023-11-21T10:58:13;5.77;;;2.50;;
16967;SDS011;64862;54.398;10.126;2023-11-21T11:08:16;5.78;;;2.40;;
16967;SDS011;64862;54.398;10.126;2023-11-21T11:18:20;5.22;;;2.30;;
16967;SDS011;64862;54.398;10.126;2023-11-21T11:28:29;5.05;;;2.47;;
16967;SDS011;64862;54.398;10.126;2023-11-21T11:38:45;6.85;;;2.70;;
16967;SDS011;64862;54.398;10.126;2023-11-21T11:48:53;5.32;;;2.33;;
16967;SDS011;64862;54.398;10.126;2023-11-21T11:59:04;7.95;;;2.90;;
16967;SDS011;64862;54.398;10.126;2023-11-21T12:09:11;7.00;;;3.28;;
16967;SDS011;64862;54.398;10.126;2023-11-21T12:19:19;6.97;;;2.70;;
16967;SDS011;64862;54.398;10.126;2023-11-21T12:29:23;6.38;;;2.80;;
16967;SDS011;64862;54.398;10.126;2023-11-21T12:39:25;6.35;;;2.78;;
16967;SDS011;64862;54.398;10.126;2023-11-21T12:49:28;5.57;;;3.10;;
16967;SDS011;64862;54.398;10.126;2023-11-21T12:59:32;6.78;;;2.70;;
16967;SDS011;64862;54.398;10.126;2023-11-21T13:09:36;4.82;;;2.65;;
16967;SDS011;64862;54.398;10.126;2023-11-21T13:19:38;6.03;;;2.30;;
16967;SDS011;64862;54.398;10.126;2023-11-21T13:29:42;6.85;;;2.35;;
16967;SDS011;64862;54.398;10.126;2023-11-21T13:39:44;5.07;;;2.42;;
16967;SDS011;64862;54.398;10.126;2023-11-21T13:49:51;6.20;;;2.40;;
16967;SDS011;64862;54.398;10.126;2023-11-21T13:59:54;5.75;;;2.20;;
16967;SDS011;64862;54.398;10.126;2023-11-21T14:10:01;3.55;;;2.03;;
16967;SDS011;64862;54.398;10.126;2023-11-21T14:20:04;7.03;;;2.40;;
16967;SDS011;64862;54.398;10.126;2023-11-21T14:30:09;6.35;;;2.47;;
16967;SDS011;64862;54.398;10.126;2023-11-21T14:40:13;6.50;;;2.78;;
16967;SDS011;64862;54.398;10.126;2023-11-21T14:50:21;5.70;;;2.30;;
16967;SDS011;64862;54.398;10.126;2023-11-21T15:00:42;6.28;;;2.30;;
16967;SDS011;64862;54.398;10.126;2023-11-21T15:10:47;6.22;;;2.33;;
16967;SDS011;64862;54.398;10.126;2023-11-21T15:20:54;6.93;;;2.80;;
16967;SDS011;64862;54.398;10.126;2023-11-21T15:30:58;4.68;;;2.40;;
16967;SDS011;64862;54.398;10.126;2023-11-21T15:41:00;5.30;;;2.30;;
16967;SDS011;64862;54.398;10.126;2023-11-21T15:51:04;6.40;;;2.15;;
16967;SDS011;64862;54.398;10.126;2023-11-21T16:01:09;4.68;;;2.10;;
16967;SDS011;64862;54.398;10.126;2023-11-21T16:11:15;5.95;;;2.20;;
16967;SDS011;64862;54.398;10.126;2023-11-21T16:21:17;3.67;;;2.20;;
16967;SDS011;64862;54.398;10.126;2023-11-21T16:31:23;4.80;;;2.55;;
16967;SDS011;64862;54.398;10.126;2023-11-21T16:41:25;3.92;;;1.70;;
16967;SDS011;64862;54.398;10.126;2023-11-21T16:51:31;6.50;;;2.30;;
16967;SDS011;64862;54.398;10.126;2023-11-21T17:01:34;6.55;;;2.70;;
16967;SDS011;64862;54.398;10.126;2023-11-21T17:11:39;6.03;;;1.80;;
16967;SDS011;64862;54.398;10.126;2023-11-21T17:21:42;4.22;;;1.83;;
16967;SDS011;64862;54.398;10.126;2023-11-21T17:31:47;3.63;;;1.30;;
16967;SDS011;64862;54.398;10.126;2023-11-21T17:41:48;6.43;;;2.53;;
16967;SDS011;64862;54.398;10.126;2023-11-21T17:51:53;3.83;;;1.90;;
16967;SDS011;64862;54.398;10.126;2023-11-21T18:01:55;3.90;;;1.60;;
16967;SDS011;64862;54.398;10.126;2023-11-21T18:11:58;4.43;;;2.35;;
16967;SDS011;64862;54.398;10.126;2023-11-21T18:22:02;6.38;;;2.65;;
16967;SDS011;64862;54.398;10.126;2023-11-21T18:32:05;7.78;;;2.67;;
16967;SDS011;64862;54.398;10.126;2023-11-21T18:42:12;7.50;;;2.40;;
16967;SDS011;64862;54.398;10.126;2023-11-21T18:52:17;4.65;;;2.28;;
16967;SDS011;64862;54.398;10.126;2023-11-21T19:02:19;6.28;;;2.10;;
16967;SDS011;64862;54.398;10.126;2023-11-21T19:12:24;3.13;;;1.70;;
16967;SDS011;64862;54.398;10.126;2023-11-21T19:22:26;4.65;;;1.98;;
16967;SDS011;64862;54.398;10.126;2023-11-21T19:32:30;6.90;;;2.15;;
16967;SDS011;64862;54.398;10.126;2023-11-21T19:42:33;6.30;;;2.72;;
16967;SDS011;64862;54.398;10.126;2023-11-21T19:52:39;5.35;;;1.70;;
16967;SDS011;64862;54.398;10.126;2023-11-21T20:02:42;5.05;;;1.85;;
16967;SDS011;64862;54.398;10.126;2023-11-21T20:12:45;4.40;;;1.40;;
16967;SDS011;64862;54.398;10.126;2023-11-21T20:22:47;3.92;;;1.50;;
16967;SDS011;64862;54.398;10.126;2023-11-21T20:32:53;5.57;;;1.80;;
16967;SDS011;64862;54.398;10.126;2023-11-21T20:42:56;6.88;;;2.20;;
16967;SDS011;64862;54.398;10.126;2023-11-21T20:53:04;7.68;;;1.42;;
16967;SDS011;64862;54.398;10.126;2023-11-21T21:03:08;3.88;;;1.20;;
16967;SDS011;64862;54.398;10.126;2023-11-21T21:13:11;3.75;;;1.00;;
16967;SDS011;64862;54.398;10.126;2023-11-21T21:23:14;5.20;;;1.08;;
16967;SDS011;64862;54.398;10.126;2023-11-21T21:33:17;2.42;;;0.90;;
16967;SDS011;64862;54.398;10.126;2023-11-21T21:43:18;3.90;;;1.10;;
16967;SDS011;64862;54.398;10.126;2023-11-21T21:53:22;5.22;;;1.00;;
16967;SDS011;64862;54.398;10.126;2023-11-21T22:03:25;3.25;;;0.80;;
16967;SDS011;64862;54.398;10.126;2023-11-21T22:13:28;6.57;;;1.10;;
16967;SDS011;64862;54.398;10.126;2023-11-21T22:23:30;2.70;;;0.82;;
16967;SDS011;64862;54.398;10.126;2023-11-21T22:33:33;3.47;;;1.02;;
16967;SDS011;64862;54.398;10.126;2023-11-21T22:43:36;3.95;;;1.00;;
16967;SDS011;64862;54.398;10.126;2023-11-21T22:53:40;1.67;;;0.80;;
16967;SDS011;64862;54.398;10.126;2023-11-21T23:03:42;1.73;;;0.70;;
16967;SDS011;64862;54.398;10.126;2023-11-21T23:13:46;3.05;;;0.98;;
16967;SDS011;64862;54.398;10.126;2023-11-21T23:23:48;2.38;;;0.95;;
16967;SDS011;64862;54.398;10.126;2023-11-21T23:33:52;4.45;;;1.30;;
16967;SDS011;64862;54.398;10.126;2023-11-21T23:43:53;3.92;;;1.48;;
16967;SDS011;64862;54.398;10.126;2023-11-21T23:53:56;3.83;;;1.20;;
